Elmer City, Washington
Current Conditions -  °F | °C
As of 3:53 PM on Friday 28 Nov 2014 (Local Time) from KOMK Reporting Station
Light Rain Light Rain  
Wind Chill: 22°   Ceiling: 7000
Heat Index: 34°   Visibility: 10mi
Dew Point: 30°   Wind: 22mph
Humidity: 85%   Direction: 360°N
Pressure: 29.28"   Gusts: 32mph
Location:  48°N, 118.95°W
Report Text: KOMK 282353Z AUTO 36019G28KT 10SM -RA FEW055 BKN070 OVC085 01/M01 A2928 RMK AO2 PK WND 36029/2323 RAB48 SLP924 P0000 60000 T00111011 10100 20011 55005
Loading
Personal Weather Stations






























Interactive Weather Map New forecast layout! Learn more

10-Day Weather Forecast

Advertisements
Track Severe Weather on mobile